Time;durP1;ratioP1;P1;durP2;ratioP2;P2;SDS_P1;SDS_P2;PMS_P1;PMS_P2;Temp;Humidity;BMP_temperature;BMP_pressure;BME280_temperature;BME280_humidity;BME280_pressure;Samples;Min_cycle;Max_cycle;Signal;HPM_P1;HPM_P2
2022/06/15 00:01:07;;;;;;;4.10;3.47;;;;;;;20.50;100.00;-24387.22;4981645;28;20185;-61
2022/06/15 00:03:36;;;;;;;4.45;2.90;;;;;;;20.12;100.00;-24376.78;4989751;28;20183;-62
2022/06/15 00:06:07;;;;;;;3.33;2.58;;;;;;;20.29;100.00;-24381.50;4976982;28;20393;-64
2022/06/15 00:08:32;;;;;;;4.90;2.85;;;;;;;20.54;100.00;-24388.31;4977829;28;20200;-61
2022/06/15 00:11:04;;;;;;;4.72;2.90;;;;;;;20.21;100.00;-24379.28;4981896;28;20232;-62
2022/06/15 00:13:29;;;;;;;3.15;2.40;;;;;;;20.29;100.00;-24381.50;4979947;28;20185;-64
2022/06/15 00:15:55;;;;;;;2.67;2.30;;;;;;;20.12;100.00;-24376.78;4983032;28;20181;-61
2022/06/15 00:18:20;;;;;;;3.40;2.90;;;;;;;20.43;100.00;-24385.28;4984313;28;20268;-64
2022/06/15 00:20:46;;;;;;;3.25;2.60;;;;;;;20.39;100.00;-24384.16;4981621;28;20240;-63
2022/06/15 00:23:11;;;;;;;3.72;2.42;;;;;;;20.26;100.00;-24380.69;4979727;28;20641;-61
2022/06/15 00:25:37;;;;;;;6.15;2.78;;;;;;;20.10;100.00;-24376.09;4981223;28;20580;-64
2022/06/15 00:28:03;;;;;;;3.75;2.50;;;;;;;20.34;100.00;-24382.63;4987072;28;20216;-62
2022/06/15 00:30:29;;;;;;;3.38;2.60;;;;;;;20.05;100.00;-24374.84;4978739;28;20217;-64
2022/06/15 00:32:54;;;;;;;3.00;2.58;;;;;;;20.37;100.00;-24383.59;4982931;28;20701;-62
2022/06/15 00:35:19;;;;;;;4.05;2.80;;;;;;;20.41;100.00;-24384.72;4978510;28;20185;-62
2022/06/15 00:37:45;;;;;;;4.10;2.88;;;;;;;20.24;100.00;-24380.13;4982639;28;20551;-63
2022/06/15 00:40:11;;;;;;;3.47;2.65;;;;;;;19.91;100.00;-24370.81;4983165;28;20612;-63
2022/06/15 00:42:37;;;;;;;2.95;2.38;;;;;;;20.30;100.00;-24381.66;4985087;28;20264;-63
2022/06/15 00:45:02;;;;;;;3.95;2.50;;;;;;;20.25;100.00;-24380.25;4976858;28;20186;-60
2022/06/15 00:47:33;;;;;;;4.03;2.80;;;;;;;20.09;100.00;-24375.81;4982568;28;20197;-63
2022/06/15 00:50:05;;;;;;;3.20;2.28;;;;;;;19.31;100.00;-24354.53;4987520;28;20292;-61
2022/06/15 00:52:38;;;;;;;4.35;2.50;;;;;;;20.34;100.00;-24382.63;4983741;28;20185;-62
2022/06/15 00:55:16;;;;;;;4.22;2.17;;;;;;;20.00;100.00;-24373.47;4985050;28;20197;-63
2022/06/15 00:57:42;;;;;;;3.45;2.45;;;;;;;20.01;100.00;-24373.72;4981986;28;20185;-63
2022/06/15 01:00:08;;;;;;;2.55;2.20;;;;;;;19.97;100.00;-24372.63;4988050;28;20215;-62
2022/06/15 01:02:36;;;;;;;2.95;2.60;;;;;;;20.14;100.00;-24377.34;4983468;28;20193;-61
2022/06/15 01:05:10;;;;;;;3.50;2.72;;;;;;;20.27;100.00;-24380.81;4987698;28;20217;-64
2022/06/15 01:07:56;;;;;;;3.08;2.28;;;;;;;20.22;100.00;-24379.56;4987728;28;20192;-61
2022/06/15 01:10:42;;;;;;;3.72;2.50;;;;;;;20.21;100.00;-24379.28;4990485;28;20225;-62
2022/06/15 01:13:41;;;;;;;3.60;2.67;;;;;;;20.19;100.00;-24378.59;4987287;28;20659;-62
2022/06/15 01:16:24;;;;;;;3.65;2.28;;;;;;;20.20;100.00;-24379.00;4987623;28;20235;-60
2022/06/15 01:18:54;;;;;;;2.75;2.33;;;;;;;20.21;100.00;-24379.16;4985837;28;20680;-63
2022/06/15 01:21:30;;;;;;;2.80;2.30;;;;;;;20.20;100.00;-24378.88;4982199;28;20220;-61
2022/06/15 01:23:58;;;;;;;3.13;2.22;;;;;;;20.23;100.00;-24379.72;4981334;28;20220;-62
2022/06/15 01:26:43;;;;;;;3.08;2.17;;;;;;;19.82;100.00;-24368.47;4979558;28;20208;-63
2022/06/15 01:29:35;;;;;;;2.60;2.20;;;;;;;19.92;100.00;-24371.09;4979669;28;20189;-61
2022/06/15 01:32:14;;;;;;;3.65;2.10;;;;;;;19.80;100.00;-24367.91;4986920;28;20686;-62
2022/06/15 01:35:05;;;;;;;2.92;2.17;;;;;;;20.10;100.00;-24376.09;4983649;28;20180;-63
2022/06/15 01:38:19;;;;;;;4.57;2.13;;;;;;;20.18;100.00;-24378.47;4965467;28;20208;-64
2022/06/15 01:40:49;;;;;;;2.67;2.03;;;;;;;20.14;100.00;-24377.34;4983648;28;20212;-64
2022/06/15 01:43:21;;;;;;;2.75;2.30;;;;;;;20.03;100.00;-24374.16;4981142;28;20652;-61
2022/06/15 01:45:48;;;;;;;2.38;2.05;;;;;;;19.84;100.00;-24369.00;4981631;28;20177;-62
2022/06/15 01:48:14;;;;;;;3.13;2.30;;;;;;;20.26;100.00;-24380.53;4979266;28;20189;-63
2022/06/15 01:50:52;;;;;;;2.88;2.30;;;;;;;19.96;100.00;-24372.34;4986126;28;20703;-60
2022/06/15 01:53:26;;;;;;;2.80;2.22;;;;;;;19.89;100.00;-24370.41;4979950;28;20223;-60
2022/06/15 01:55:54;;;;;;;3.00;2.20;;;;;;;19.98;100.00;-24372.91;4983814;28;20179;-63
2022/06/15 01:58:23;;;;;;;3.67;2.22;;;;;;;20.21;100.00;-24379.16;4987370;28;20187;-60
2022/06/15 02:00:59;;;;;;;3.90;2.70;;;;;;;20.14;100.00;-24377.22;4986645;28;20201;-62
2022/06/15 02:03:34;;;;;;;2.70;2.30;;;;;;;20.26;100.00;-24380.53;4977952;28;20231;-61
2022/06/15 02:06:16;;;;;;;2.35;2.00;;;;;;;19.99;100.00;-24373.19;4977733;28;20243;-62
2022/06/15 02:08:52;;;;;;;2.88;2.35;;;;;;;20.20;100.00;-24378.88;4986788;28;20272;-63
2022/06/15 02:11:29;;;;;;;3.25;2.08;;;;;;;20.17;100.00;-24378.03;4986350;28;20219;-60
2022/06/15 02:14:06;;;;;;;3.22;2.30;;;;;;;20.10;100.00;-24376.09;4984235;28;20193;-62
2022/06/15 02:16:40;;;;;;;3.00;2.03;;;;;;;19.72;100.00;-24365.69;4979657;28;20192;-60
2022/06/15 02:19:09;;;;;;;2.30;2.00;;;;;;;20.10;100.00;-24376.25;4978839;28;20212;-62
2022/06/15 02:21:39;;;;;;;3.33;2.40;;;;;;;19.89;100.00;-24370.41;4984467;28;20232;-62
2022/06/15 02:24:06;;;;;;;2.65;2.17;;;;;;;19.81;100.00;-24368.19;4986670;28;20195;-61
2022/06/15 02:26:35;;;;;;;5.63;2.20;;;;;;;19.77;100.00;-24367.06;4983830;28;20182;-62
2022/06/15 02:29:13;;;;;;;2.67;2.28;;;;;;;20.14;100.00;-24377.22;4979760;28;20197;-62
2022/06/15 02:31:41;;;;;;;2.75;2.25;;;;;;;20.07;100.00;-24375.41;4983885;28;20172;-63
2022/06/15 02:34:07;;;;;;;3.05;2.25;;;;;;;19.77;100.00;-24367.06;4982851;28;20185;-61
2022/06/15 02:36:33;;;;;;;3.00;2.22;;;;;;;20.09;100.00;-24375.97;4983318;28;20193;-63
2022/06/15 02:39:06;;;;;;;3.35;2.30;;;;;;;20.07;100.00;-24375.41;4977527;28;20711;-61
2022/06/15 02:41:32;;;;;;;2.47;2.15;;;;;;;19.93;100.00;-24371.50;4986720;28;20660;-63
2022/06/15 02:43:59;;;;;;;2.90;2.30;;;;;;;19.98;100.00;-24372.91;4982625;28;20194;-63
2022/06/15 02:46:27;;;;;;;3.17;2.35;;;;;;;19.74;98.98;-24366.38;4982743;28;20284;-65
2022/06/15 02:48:53;;;;;;;2.90;2.10;;;;;;;20.12;99.32;-24376.66;4982801;28;20232;-63
2022/06/15 02:51:24;;;;;;;3.42;2.10;;;;;;;20.02;99.90;-24374.00;4982568;28;20523;-63
2022/06/15 02:53:54;;;;;;;2.33;2.05;;;;;;;19.78;96.74;-24367.47;4981430;28;20707;-60
2022/06/15 02:56:21;;;;;;;3.10;2.22;;;;;;;19.96;98.14;-24372.34;4977896;28;20186;-61
2022/06/15 02:58:49;;;;;;;3.17;2.25;;;;;;;20.07;94.77;-24375.25;4979067;28;20232;-63
2022/06/15 03:01:16;;;;;;;4.03;2.15;;;;;;;20.61;96.61;-24390.13;4981616;28;20182;-61
2022/06/15 03:03:41;;;;;;;3.28;2.30;;;;;;;20.90;95.30;-24398.16;4982170;28;20189;-62
2022/06/15 03:06:11;;;;;;;3.35;2.25;;;;;;;21.20;94.00;-24406.34;4977941;28;20192;-61
2022/06/15 03:08:37;;;;;;;2.47;2.10;;;;;;;21.34;93.01;-24410.09;4979865;28;20182;-61
2022/06/15 03:11:03;;;;;;;3.08;2.20;;;;;;;21.65;91.55;-24418.56;4978157;28;20236;-61
2022/06/15 03:13:29;;;;;;;3.80;2.30;;;;;;;21.77;90.54;-24422.00;4981876;28;20184;-60
2022/06/15 03:15:59;;;;;;;4.18;1.98;;;;;;;21.80;88.07;-24422.84;4977605;28;20210;-62
2022/06/15 03:18:26;;;;;;;2.75;2.20;;;;;;;22.62;83.74;-24445.13;4982388;28;20180;-62
2022/06/15 03:20:56;;;;;;;2.90;2.38;;;;;;;22.84;83.81;-24451.22;4981202;28;20193;-61
2022/06/15 03:23:22;;;;;;;2.85;2.25;;;;;;;23.02;81.92;-24456.19;4974960;28;20553;-61
2022/06/15 03:25:53;;;;;;;2.80;2.30;;;;;;;23.70;77.85;-24474.69;4973158;28;20200;-61
2022/06/15 03:28:19;;;;;;;2.92;2.30;;;;;;;23.64;78.03;-24473.19;4974841;28;20188;-61
2022/06/15 03:30:44;;;;;;;3.08;2.38;;;;;;;23.55;76.48;-24470.56;4974062;28;20212;-64
2022/06/15 03:33:10;;;;;;;2.88;2.30;;;;;;;24.05;73.32;-24484.22;4982044;28;20195;-63
2022/06/15 03:35:35;;;;;;;3.17;2.25;;;;;;;24.22;73.88;-24488.91;4974704;28;20220;-63
2022/06/15 03:38:02;;;;;;;3.90;2.50;;;;;;;23.80;75.63;-24477.47;4975537;28;20189;-63
2022/06/15 03:40:28;;;;;;;2.97;2.33;;;;;;;24.48;74.43;-24496.09;4972753;28;20302;-61
2022/06/15 03:42:53;;;;;;;4.05;2.47;;;;;;;24.69;73.86;-24501.59;4975210;28;20193;-60
2022/06/15 03:45:19;;;;;;;2.70;2.20;;;;;;;25.26;71.25;-24517.28;4975208;28;20255;-60
2022/06/15 03:47:45;;;;;;;2.92;2.60;;;;;;;24.91;71.12;-24507.66;4972424;28;20188;-61
2022/06/15 03:50:10;;;;;;;3.65;2.40;;;;;;;25.99;69.88;-24537.09;4975225;28;20252;-64
2022/06/15 03:52:37;;;;;;;2.53;2.22;;;;;;;25.64;70.60;-24527.47;4975191;28;20728;-62
2022/06/15 03:55:03;;;;;;;2.78;2.42;;;;;;;25.95;68.71;-24536.00;4973903;28;20169;-63
2022/06/15 03:57:29;;;;;;;3.70;2.00;;;;;;;25.87;69.41;-24533.81;4974844;28;20252;-63
2022/06/15 03:59:54;;;;;;;3.00;2.40;;;;;;;24.84;73.80;-24505.88;4974852;28;20200;-63
2022/06/15 04:02:20;;;;;;;2.97;2.30;;;;;;;25.60;70.15;-24526.38;4974754;28;20184;-62
2022/06/15 04:04:46;;;;;;;2.55;2.22;;;;;;;26.87;65.58;-24561.00;4971441;28;20284;-62
2022/06/15 04:10:07;;;;;;;3.17;2.10;;;;;;;27.75;63.61;-24584.84;4929674;28;20243;-63
2022/06/15 04:12:32;;;;;;;2.65;2.15;;;;;;;28.53;59.81;-24606.06;4973163;28;20185;-61
2022/06/15 04:14:58;;;;;;;4.28;2.20;;;;;;;28.23;59.32;-24597.88;4972530;28;20186;-62
2022/06/15 04:17:23;;;;;;;3.08;2.58;;;;;;;29.46;55.91;-24631.06;4973931;28;20234;-63
2022/06/15 04:20:31;;;;;;;3.90;2.50;;;;;;;29.31;56.28;-24627.00;4972875;28;20203;-63
2022/06/15 04:22:35;;;;;;;4.38;2.10;;;;;;;29.66;54.78;-24636.53;4973060;28;20271;-63
2022/06/15 04:25:01;;;;;;;3.55;2.40;;;;;;;30.26;52.13;-24652.78;4976719;28;20235;-63
2022/06/15 04:27:26;;;;;;;2.92;2.47;;;;;;;29.66;51.47;-24636.53;4976717;28;21037;-62
2022/06/15 04:29:52;;;;;;;3.22;2.40;;;;;;;30.23;50.72;-24651.94;4978224;28;20185;-61
2022/06/15 04:32:17;;;;;;;3.72;2.47;;;;;;;29.62;52.71;-24635.44;4976688;28;20189;-64
2022/06/15 04:34:43;;;;;;;5.20;2.42;;;;;;;29.25;54.50;-24625.34;4978190;28;20632;-65
2022/06/15 04:37:08;;;;;;;3.50;2.58;;;;;;;29.59;55.08;-24634.63;4977506;28;20180;-61
2022/06/15 04:39:33;;;;;;;3.92;2.22;;;;;;;29.28;54.43;-24626.16;4976623;28;20209;-64
2022/06/15 04:41:59;;;;;;;6.65;2.80;;;;;;;29.84;53.42;-24641.44;4977015;28;20676;-62
2022/06/15 04:44:24;;;;;;;4.10;2.50;;;;;;;29.31;54.60;-24627.00;4976974;28;20181;-63
2022/06/15 04:46:50;;;;;;;4.47;2.67;;;;;;;28.02;58.93;-24592.25;4976702;28;20188;-63
2022/06/15 04:49:16;;;;;;;3.55;2.80;;;;;;;27.80;58.55;-24586.09;4976300;28;20264;-63
2022/06/15 04:51:42;;;;;;;2.78;2.13;;;;;;;27.13;60.54;-24568.13;4978954;28;20578;-62
2022/06/15 04:54:10;;;;;;;4.10;2.95;;;;;;;27.36;60.91;-24574.16;4977867;28;20173;-63
2022/06/15 04:56:37;;;;;;;4.43;2.50;;;;;;;26.21;64.13;-24543.16;4977697;28;20209;-61
2022/06/15 04:59:03;;;;;;;3.53;2.60;;;;;;;26.28;63.92;-24545.06;4976987;28;20668;-64
2022/06/15 05:01:29;;;;;;;3.38;2.65;;;;;;;26.38;62.68;-24547.81;4978419;28;20172;-61
2022/06/15 05:03:54;;;;;;;3.05;2.60;;;;;;;26.06;64.33;-24539.03;4977589;28;20234;-61
2022/06/15 05:06:37;;;;;;;3.50;2.80;;;;;;;27.36;61.38;-24574.16;4976083;28;21177;-66
2022/06/15 05:09:05;;;;;;;4.32;2.95;;;;;;;27.61;60.36;-24581.00;4977108;28;20197;-63
2022/06/15 05:11:31;;;;;;;3.58;2.35;;;;;;;27.27;58.05;-24571.69;4977670;28;20189;-63
2022/06/15 05:13:56;;;;;;;3.67;2.80;;;;;;;27.12;59.52;-24567.72;4976807;28;20563;-66
2022/06/15 05:16:23;;;;;;;5.53;2.45;;;;;;;27.00;58.47;-24564.56;4975134;28;20204;-65
2022/06/15 05:18:49;;;;;;;2.90;2.28;;;;;;;27.18;59.29;-24569.50;4976176;28;21647;-62
2022/06/15 05:21:14;;;;;;;2.95;2.40;;;;;;;26.90;59.68;-24561.81;4974998;28;20640;-64
2022/06/15 05:23:40;;;;;;;3.10;2.80;;;;;;;26.64;60.98;-24554.69;4975469;28;20191;-62
2022/06/15 05:26:06;;;;;;;3.67;2.38;;;;;;;26.14;58.97;-24541.22;4976732;28;20274;-65
2022/06/15 05:28:32;;;;;;;3.10;2.38;;;;;;;25.95;59.74;-24536.13;4976495;28;20273;-63
2022/06/15 05:31:11;;;;;;;4.70;2.50;;;;;;;26.66;58.90;-24555.38;4976485;28;20230;-65
2022/06/15 05:33:40;;;;;;;2.67;2.15;;;;;;;26.13;58.42;-24540.94;4975663;28;20188;-63
2022/06/15 05:36:09;;;;;;;3.70;2.20;;;;;;;26.39;57.16;-24547.97;4975770;28;20181;-63
2022/06/15 05:38:35;;;;;;;2.95;2.42;;;;;;;26.86;56.82;-24560.72;4977265;28;20563;-62
2022/06/15 05:41:01;;;;;;;3.50;2.28;;;;;;;26.74;57.58;-24557.56;4977416;28;20197;-63
2022/06/15 05:43:28;;;;;;;3.90;2.72;;;;;;;26.89;55.15;-24561.56;4975391;28;20645;-64
2022/06/15 05:45:53;;;;;;;2.88;2.42;;;;;;;25.01;59.31;-24510.41;4977326;28;20200;-63
2022/06/15 05:48:20;;;;;;;2.70;2.08;;;;;;;24.72;62.79;-24502.41;4974741;28;20176;-63
2022/06/15 05:50:45;;;;;;;3.45;2.35;;;;;;;24.61;62.28;-24499.53;4974837;28;20199;-63
2022/06/15 05:53:11;;;;;;;3.10;2.40;;;;;;;24.51;64.01;-24496.91;4978020;28;20200;-64
2022/06/15 05:55:36;;;;;;;3.65;2.10;;;;;;;24.50;64.07;-24496.63;4976315;28;20186;-62
2022/06/15 05:58:03;;;;;;;2.63;2.10;;;;;;;24.10;66.55;-24485.75;4976914;28;20181;-64
2022/06/15 06:00:29;;;;;;;4.88;2.95;;;;;;;23.90;66.38;-24480.09;4976279;28;20217;-63
2022/06/15 06:02:55;;;;;;;2.72;2.20;;;;;;;23.67;65.72;-24474.00;4976656;28;20189;-65
2022/06/15 06:05:22;;;;;;;3.08;2.60;;;;;;;23.50;66.04;-24469.31;4974238;28;20192;-67
2022/06/15 06:07:48;;;;;;;3.67;2.10;;;;;;;23.26;67.04;-24462.81;4975310;28;20284;-63
2022/06/15 06:10:13;;;;;;;4.03;2.35;;;;;;;23.56;66.17;-24470.97;4974554;28;20263;-62
2022/06/15 06:12:39;;;;;;;2.63;2.10;;;;;;;23.81;65.77;-24477.59;4973472;28;20603;-65
2022/06/15 06:15:05;;;;;;;3.03;2.25;;;;;;;23.28;64.39;-24463.25;4976209;28;20647;-63
2022/06/15 06:17:31;;;;;;;2.38;1.92;;;;;;;23.62;66.70;-24472.50;4973806;28;20731;-66
2022/06/15 06:19:56;;;;;;;2.33;1.90;;;;;;;23.45;66.25;-24467.94;4975916;28;20201;-64
2022/06/15 06:22:22;;;;;;;3.10;2.13;;;;;;;23.29;68.76;-24463.50;4975756;28;20668;-66
2022/06/15 06:24:47;;;;;;;3.25;2.20;;;;;;;23.43;67.31;-24467.25;4976710;28;20189;-63
2022/06/15 06:27:15;;;;;;;2.13;1.88;;;;;;;23.22;68.30;-24461.56;4975682;28;20382;-64
2022/06/15 06:29:40;;;;;;;3.50;2.30;;;;;;;23.57;69.00;-24471.25;4976142;28;20177;-63
2022/06/15 06:32:10;;;;;;;3.38;2.30;;;;;;;23.69;65.54;-24474.44;4977328;28;20193;-64
2022/06/15 06:34:36;;;;;;;3.08;2.10;;;;;;;23.85;67.53;-24478.69;4975499;28;20177;-63
2022/06/15 06:37:05;;;;;;;2.45;2.10;;;;;;;23.84;65.91;-24478.44;4976513;28;20248;-63
2022/06/15 06:39:31;;;;;;;4.80;2.92;;;;;;;24.16;66.27;-24487.25;4976335;28;20295;-63
2022/06/15 06:41:59;;;;;;;2.72;1.90;;;;;;;23.97;65.70;-24482.16;4976543;28;20609;-66
2022/06/15 06:44:24;;;;;;;2.47;2.05;;;;;;;23.60;65.67;-24471.94;4975401;28;20628;-62
2022/06/15 06:46:52;;;;;;;2.72;2.30;;;;;;;23.81;66.05;-24477.75;4976892;28;20172;-63
2022/06/15 06:49:18;;;;;;;2.28;2.08;;;;;;;23.74;66.85;-24475.94;4976351;28;20688;-62
2022/06/15 06:51:45;;;;;;;2.50;2.20;;;;;;;23.96;66.70;-24481.72;4976334;28;20615;-61
2022/06/15 06:54:14;;;;;;;5.72;2.20;;;;;;;23.89;66.27;-24479.81;4975165;28;20192;-64
2022/06/15 06:56:40;;;;;;;3.08;1.98;;;;;;;23.98;67.34;-24482.28;4974739;28;20180;-65
2022/06/15 06:59:08;;;;;;;2.78;2.10;;;;;;;24.36;68.06;-24492.78;4975599;28;20636;-65
2022/06/15 07:01:35;;;;;;;3.08;2.25;;;;;;;23.99;64.07;-24482.56;4976057;28;20191;-65
2022/06/15 07:04:01;;;;;;;2.50;2.20;;;;;;;24.33;65.01;-24491.81;4975202;28;20188;-65
2022/06/15 07:06:26;;;;;;;2.42;1.90;;;;;;;24.40;63.94;-24493.88;4973642;28;20185;-63
2022/06/15 07:08:52;;;;;;;2.70;2.08;;;;;;;24.39;64.33;-24493.47;4975245;28;20189;-64
2022/06/15 07:11:18;;;;;;;2.45;1.95;;;;;;;24.44;64.89;-24494.97;4974275;28;20177;-65
2022/06/15 07:13:45;;;;;;;2.17;1.77;;;;;;;24.14;62.99;-24486.69;4975711;28;20750;-65
2022/06/15 07:16:13;;;;;;;3.08;2.15;;;;;;;24.26;62.58;-24489.88;4975045;28;20194;-65
2022/06/15 07:18:39;;;;;;;4.15;2.20;;;;;;;24.39;62.51;-24493.59;4974136;28;20270;-63
2022/06/15 07:21:13;;;;;;;4.05;2.30;;;;;;;24.01;62.99;-24483.25;4976072;28;20255;-64
2022/06/15 07:23:40;;;;;;;5.07;2.55;;;;;;;24.36;62.99;-24492.78;4984503;28;20210;-63
2022/06/15 07:26:10;;;;;;;6.20;2.17;;;;;;;24.20;63.85;-24488.38;4984343;28;20239;-63
2022/06/15 07:28:36;;;;;;;3.63;2.42;;;;;;;24.55;64.46;-24497.88;4987377;28;20193;-64
2022/06/15 07:31:01;;;;;;;3.25;2.40;;;;;;;24.57;62.03;-24498.56;4983692;28;20514;-66
2022/06/15 07:33:27;;;;;;;2.92;2.22;;;;;;;24.77;64.49;-24503.78;4983717;28;20199;-64
2022/06/15 07:35:53;;;;;;;3.10;2.05;;;;;;;24.64;61.74;-24500.50;4981811;28;20327;-66
2022/06/15 07:38:19;;;;;;;2.45;1.95;;;;;;;24.73;61.29;-24502.69;4978210;28;20263;-62
2022/06/15 07:40:46;;;;;;;2.58;2.00;;;;;;;24.54;61.73;-24497.75;4985349;28;20201;-62
2022/06/15 07:43:12;;;;;;;2.28;1.90;;;;;;;24.92;62.39;-24508.06;4977871;28;20200;-65
2022/06/15 07:45:38;;;;;;;2.85;2.30;;;;;;;25.14;63.78;-24514.00;4983088;28;20185;-63
2022/06/15 07:50:47;;;;;;;2.20;1.90;;;;;;;25.01;61.36;-24510.41;4981474;28;20192;-65
2022/06/15 07:53:14;;;;;;;5.15;1.92;;;;;;;25.08;62.19;-24512.34;4988477;28;20577;-62
2022/06/15 07:55:43;;;;;;;3.20;2.38;;;;;;;25.31;61.36;-24518.66;4974285;28;20207;-63
2022/06/15 07:58:09;;;;;;;3.30;2.17;;;;;;;25.38;59.79;-24520.59;4973367;28;20208;-64
2022/06/15 08:00:39;;;;;;;16.80;3.58;;;;;;;25.17;59.90;-24514.81;4985171;28;20279;-64
2022/06/15 08:03:05;;;;;;;3.33;1.90;;;;;;;25.33;59.86;-24519.22;4977292;28;20193;-63
2022/06/15 08:05:35;;;;;;;3.63;2.10;;;;;;;25.51;59.77;-24524.03;4981635;28;20601;-62
2022/06/15 08:08:03;;;;;;;3.03;2.10;;;;;;;25.79;59.35;-24531.59;4981433;28;20181;-62
2022/06/15 08:10:28;;;;;;;3.50;2.38;;;;;;;25.84;60.88;-24532.97;4991050;28;20654;-63
2022/06/15 08:12:54;;;;;;;2.65;2.03;;;;;;;25.51;64.67;-24524.16;4992101;28;20180;-62
2022/06/15 08:15:21;;;;;;;4.38;2.72;;;;;;;25.55;65.34;-24525.00;4987283;28;20207;-62
2022/06/15 08:17:52;;;;;;;3.00;2.28;;;;;;;25.86;63.64;-24533.66;4979204;28;20188;-62
2022/06/15 08:20:22;;;;;;;3.95;2.50;;;;;;;26.06;61.35;-24538.88;4984985;28;20296;-65
2022/06/15 08:22:51;;;;;;;3.67;2.63;;;;;;;26.00;64.10;-24537.38;4980393;28;20200;-64
2022/06/15 08:25:21;;;;;;;6.68;3.75;;;;;;;26.28;59.03;-24544.94;4983856;28;20184;-63
2022/06/15 08:27:47;;;;;;;3.47;2.60;;;;;;;26.40;62.79;-24548.09;4982605;28;20208;-66
2022/06/15 08:30:14;;;;;;;4.88;3.15;;;;;;;26.17;62.88;-24541.91;4984018;28;20189;-65
2022/06/15 08:32:40;;;;;;;3.25;2.50;;;;;;;26.29;61.97;-24545.34;4980490;28;20181;-65
2022/06/15 08:35:07;;;;;;;3.72;2.83;;;;;;;26.02;62.55;-24537.78;4983962;28;20192;-64
2022/06/15 08:37:33;;;;;;;3.75;2.70;;;;;;;26.32;63.60;-24546.03;4987066;28;20181;-64
2022/06/15 08:39:59;;;;;;;5.35;2.92;;;;;;;26.03;64.29;-24538.06;4981763;28;20205;-64
2022/06/15 08:42:48;;;;;;;3.63;2.85;;;;;;;26.51;61.97;-24551.13;4983016;28;20192;-65
2022/06/15 08:45:26;;;;;;;5.65;2.90;;;;;;;26.51;65.83;-24551.13;4975965;28;20181;-62
2022/06/15 08:48:14;;;;;;;5.15;3.38;;;;;;;26.51;62.94;-24551.25;4981898;28;20181;-63
2022/06/15 08:50:46;;;;;;;4.25;3.13;;;;;;;26.79;62.32;-24558.94;4977599;28;20645;-64
2022/06/15 08:53:36;;;;;;;4.82;2.78;;;;;;;26.66;62.00;-24555.22;4981135;28;20186;-64
2022/06/15 08:56:14;;;;;;;3.75;2.60;;;;;;;26.86;59.82;-24560.59;4978976;28;20613;-62
2022/06/15 08:58:47;;;;;;;4.75;3.05;;;;;;;26.55;62.70;-24552.34;4979388;28;20196;-64
2022/06/15 09:01:26;;;;;;;3.63;2.72;;;;;;;26.37;63.86;-24547.53;4978133;28;20207;-63
2022/06/15 09:03:54;;;;;;;4.45;2.75;;;;;;;26.62;63.95;-24554.28;4980149;28;20180;-62
2022/06/15 09:06:44;;;;;;;3.65;2.72;;;;;;;26.63;67.42;-24554.41;4977116;28;20291;-64
2022/06/15 09:09:30;;;;;;;3.90;2.60;;;;;;;26.94;67.40;-24562.91;4980723;28;20228;-64
2022/06/15 09:15:54;;;;;;;4.85;2.70;;;;;;;27.19;66.19;-24569.63;4977398;28;20212;-62
2022/06/15 09:18:29;;;;;;;4.85;2.83;;;;;;;27.32;67.85;-24573.06;4912191;29;20206;-63
2022/06/15 09:21:00;;;;;;;4.93;3.05;;;;;;;27.04;68.89;-24565.66;4971649;28;20711;-63
2022/06/15 09:23:49;;;;;;;5.03;2.67;;;;;;;26.32;67.57;-24546.03;4986158;28;20675;-66
2022/06/15 09:26:23;;;;;;;3.28;2.60;;;;;;;26.19;66.49;-24542.47;4979770;28;20208;-64
2022/06/15 09:28:55;;;;;;;5.32;2.80;;;;;;;25.89;70.36;-24534.34;4980605;28;20215;-63
2022/06/15 09:31:32;;;;;;;5.72;2.63;;;;;;;26.30;64.06;-24545.47;4982982;28;20568;-64
2022/06/15 09:34:04;;;;;;;3.42;2.78;;;;;;;26.13;64.15;-24540.94;4985678;28;20704;-62
2022/06/15 09:36:35;;;;;;;3.42;2.53;;;;;;;25.71;65.54;-24529.53;4980407;28;21318;-63
2022/06/15 09:39:02;;;;;;;2.92;2.20;;;;;;;26.08;63.54;-24539.56;4982362;28;20181;-65
2022/06/15 09:41:46;;;;;;;4.28;2.45;;;;;;;26.21;67.84;-24543.16;4979905;28;20181;-63
2022/06/15 09:44:18;;;;;;;4.55;2.75;;;;;;;26.61;66.57;-24554.00;4980710;28;20200;-63
2022/06/15 09:46:52;;;;;;;3.50;2.60;;;;;;;26.44;62.53;-24549.34;4981135;28;20624;-63
2022/06/15 09:49:35;;;;;;;5.55;2.60;;;;;;;26.21;66.62;-24543.16;4978852;28;20186;-63
2022/06/15 09:52:09;;;;;;;2.60;2.30;;;;;;;26.04;64.96;-24538.34;4982391;28;20199;-64
2022/06/15 09:54:37;;;;;;;4.03;2.55;;;;;;;26.39;66.74;-24547.97;4981089;28;20258;-65
2022/06/15 09:57:03;;;;;;;3.38;2.50;;;;;;;26.03;65.29;-24538.19;4980446;28;20178;-64
2022/06/15 09:59:33;;;;;;;2.80;2.33;;;;;;;26.58;63.69;-24553.19;4980879;28;20215;-64
2022/06/15 10:02:02;;;;;;;3.42;2.60;;;;;;;26.68;63.50;-24555.78;4984254;28;20667;-65
2022/06/15 10:04:31;;;;;;;3.05;2.38;;;;;;;26.19;59.95;-24542.47;4985033;28;20193;-65
2022/06/15 10:07:06;;;;;;;3.72;2.50;;;;;;;26.60;58.58;-24553.59;4979237;28;20276;-65
2022/06/15 10:09:35;;;;;;;3.55;2.63;;;;;;;26.25;64.43;-24544.25;4982168;28;20733;-65
2022/06/15 10:12:56;;;;;;;2.65;2.30;;;;;;;26.91;59.98;-24562.09;4983168;28;20184;-64
2022/06/15 10:15:40;;;;;;;4.18;2.72;;;;;;;26.68;61.22;-24555.78;4978444;28;20221;-61
2022/06/15 10:18:36;;;;;;;3.25;2.60;;;;;;;26.63;62.37;-24554.53;4981068;28;20192;-63
2022/06/15 10:21:13;;;;;;;2.80;2.28;;;;;;;26.48;56.55;-24550.44;4979767;28;20220;-61
2022/06/15 10:23:51;;;;;;;2.67;2.20;;;;;;;27.08;55.94;-24566.75;4978194;28;20276;-63
2022/06/15 10:26:23;;;;;;;6.13;2.28;;;;;;;26.95;56.00;-24563.19;4979935;28;20204;-62
2022/06/15 10:28:48;;;;;;;3.42;2.47;;;;;;;26.47;58.56;-24550.00;4981433;28;20187;-64
2022/06/15 10:31:22;;;;;;;4.88;2.63;;;;;;;26.99;55.62;-24564.16;4978547;28;20193;-64
2022/06/15 10:33:49;;;;;;;2.60;2.22;;;;;;;26.86;55.22;-24560.59;4978153;28;20244;-61
2022/06/15 10:36:29;;;;;;;3.10;2.20;;;;;;;27.71;56.72;-24583.75;4980175;28;20573;-64
2022/06/15 10:39:06;;;;;;;4.55;2.90;;;;;;;27.51;55.82;-24578.28;4979158;28;20177;-62
2022/06/15 10:41:46;;;;;;;2.67;2.40;;;;;;;27.31;54.60;-24572.94;4981725;28;20239;-64
2022/06/15 10:44:33;;;;;;;3.30;2.35;;;;;;;26.98;59.12;-24563.88;4981008;28;20275;-62
2022/06/15 10:47:25;;;;;;;2.95;2.30;;;;;;;27.24;55.99;-24571.00;4980968;28;20210;-63
2022/06/15 10:50:22;;;;;;;2.88;2.22;;;;;;;27.70;56.59;-24583.47;4982786;28;20272;-66
2022/06/15 10:53:02;;;;;;;3.28;2.40;;;;;;;27.48;54.89;-24577.44;4982065;28;20696;-63
2022/06/15 11:04:23;;;;;;;2.28;2.00;;;;;;;27.73;52.48;-24584.16;4982466;28;20208;-64
2022/06/15 11:07:19;;;;;;;3.03;2.17;;;;;;;27.97;54.12;-24590.88;4981770;28;20284;-65
2022/06/15 11:10:04;;;;;;;5.07;2.40;;;;;;;27.85;49.89;-24587.59;4977499;28;20760;-62
2022/06/15 11:12:29;;;;;;;3.30;2.20;;;;;;;27.58;49.46;-24580.19;4978320;28;20208;-65
2022/06/15 11:15:21;;;;;;;2.72;2.25;;;;;;;27.11;52.55;-24567.44;4988361;28;20188;-62
2022/06/15 11:18:04;;;;;;;12.85;2.67;;;;;;;27.49;54.31;-24577.88;4981852;28;20192;-61
2022/06/15 11:20:44;;;;;;;3.50;2.13;;;;;;;28.06;50.83;-24593.34;4983839;28;20220;-61
2022/06/15 11:23:23;;;;;;;2.67;1.98;;;;;;;28.14;50.47;-24595.41;4977053;28;20528;-65
2022/06/15 11:25:51;;;;;;;3.70;2.35;;;;;;;28.51;49.41;-24605.53;4979098;28;20188;-65
2022/06/15 11:28:25;;;;;;;3.15;2.10;;;;;;;28.47;52.64;-24604.28;4977704;28;20184;-65
2022/06/15 11:31:14;;;;;;;3.08;2.40;;;;;;;28.31;53.84;-24600.06;4982250;28;20192;-61
2022/06/15 11:33:46;;;;;;;3.35;2.50;;;;;;;28.79;55.57;-24613.03;4982465;28;20242;-63
2022/06/15 11:36:25;;;;;;;3.50;2.80;;;;;;;28.37;57.30;-24601.56;4976948;28;20569;-63
2022/06/15 11:39:02;;;;;;;4.13;2.50;;;;;;;28.68;53.62;-24610.03;4980871;28;20183;-64
2022/06/15 11:41:44;;;;;;;4.45;2.55;;;;;;;28.17;54.52;-24596.22;4977579;28;20523;-63
2022/06/15 11:44:27;;;;;;;5.10;2.67;;;;;;;27.74;56.13;-24584.44;4982129;28;20299;-64
2022/06/15 11:47:30;;;;;;;3.17;2.63;;;;;;;27.97;57.00;-24590.75;4983735;28;20185;-65
2022/06/15 11:49:58;;;;;;;4.05;3.00;;;;;;;27.89;56.21;-24588.69;4944088;28;20681;-66
2022/06/15 11:52:41;;;;;;;3.42;2.60;;;;;;;27.90;56.59;-24588.97;4977422;28;20177;-64
2022/06/15 11:55:29;;;;;;;4.43;2.80;;;;;;;28.16;59.06;-24595.94;4977106;28;20192;-64
2022/06/15 11:58:03;;;;;;;4.63;2.67;;;;;;;27.79;59.97;-24585.81;4984059;28;20181;-65
2022/06/15 12:00:34;;;;;;;5.20;3.42;;;;;;;27.65;59.41;-24582.25;4983157;28;20223;-63